Time;durP1;ratioP1;P1;durP2;ratioP2;P2;SDS_P1;SDS_P2;PMS_P1;PMS_P2;Temp;Humidity;BMP_temperature;BMP_pressure;BME280_temperature;BME280_humidity;BME280_pressure;Samples;Min_cycle;Max_cycle;Signal;HPM_P1;HPM_P2
2023/10/07 00:02:26;;;;;;;9.73;5.45;;;;;;;11.48;nan;101921.78;10369076;28;20508;-83
2023/10/07 00:07:30;;;;;;;11.75;5.53;;;;;;;11.63;nan;101942.75;10366622;28;20037;-83
2023/10/07 00:12:30;;;;;;;10.75;5.10;;;;;;;11.57;nan;101931.91;10365106;28;20111;-82
2023/10/07 00:17:31;;;;;;;10.05;5.80;;;;;;;11.60;nan;101932.09;10398395;28;20494;-83
2023/10/07 00:22:40;;;;;;;11.60;4.40;;;;;;;11.77;nan;101927.88;10364372;28;20046;-83
2023/10/07 00:27:41;;;;;;;9.18;4.80;;;;;;;11.69;nan;101909.03;10365144;28;20042;-83
2023/10/07 00:32:45;;;;;;;11.02;5.30;;;;;;;11.62;nan;101904.22;10365527;28;20440;-85
2023/10/07 00:37:45;;;;;;;10.60;5.15;;;;;;;11.64;nan;101915.72;10348258;28;20042;-83
2023/10/07 00:42:46;;;;;;;14.00;6.78;;;;;;;11.71;nan;101903.91;10347398;28;20397;-83
2023/10/07 00:47:49;;;;;;;15.82;6.05;;;;;;;11.72;nan;101888.22;10362651;28;20092;-82
2023/10/07 00:52:56;;;;;;;22.60;7.93;;;;;;;11.82;nan;101888.78;10365123;28;20088;-84
2023/10/07 01:08:20;;;;;;;18.47;8.50;;;;;;;11.87;nan;101900.44;10362999;28;20049;-84
2023/10/07 01:13:29;;;;;;;12.77;6.57;;;;;;;11.85;nan;101909.94;10364212;28;20030;-83
2023/10/07 01:18:29;;;;;;;17.52;7.88;;;;;;;11.94;nan;101896.47;10361894;28;20478;-83
2023/10/07 01:23:33;;;;;;;16.63;8.77;;;;;;;11.99;nan;101882.81;10362569;28;20092;-84
2023/10/07 01:28:40;;;;;;;17.13;8.07;;;;;;;12.00;nan;101873.25;10364154;28;20091;-84
2023/10/07 01:33:47;;;;;;;16.73;8.10;;;;;;;12.05;nan;101869.19;10363108;28;20161;-84
2023/10/07 01:38:54;;;;;;;14.05;7.97;;;;;;;12.02;nan;101871.63;10362860;28;20037;-84
2023/10/07 01:44:04;;;;;;;17.85;9.68;;;;;;;12.10;nan;101882.56;10362753;28;20099;-84
2023/10/07 01:49:11;;;;;;;16.80;8.35;;;;;;;12.12;nan;101889.72;10377862;28;20052;-84
2023/10/07 01:54:12;;;;;;;23.60;10.70;;;;;;;12.21;nan;101901.56;10361595;28;20077;-84
2023/10/07 01:59:22;;;;;;;24.75;11.45;;;;;;;12.35;nan;101908.50;10378071;28;20499;-84
2023/10/07 02:04:28;;;;;;;21.25;11.27;;;;;;;12.43;nan;101901.03;10337521;28;20034;-83
2023/10/07 02:09:35;;;;;;;18.85;10.15;;;;;;;12.55;nan;101898.22;10347681;28;20040;-84
2023/10/07 02:14:36;;;;;;;26.45;10.73;;;;;;;12.50;nan;101897.06;10361414;28;20513;-84
2023/10/07 02:19:40;;;;;;;20.10;10.40;;;;;;;12.35;nan;101882.25;10342959;28;20111;-83
2023/10/07 02:24:41;;;;;;;20.30;12.25;;;;;;;12.31;nan;101877.66;10361865;28;20056;-84
2023/10/07 02:29:42;;;;;;;22.02;12.93;;;;;;;12.23;nan;101885.06;10360556;28;20422;-85
2023/10/07 02:34:53;;;;;;;31.02;10.90;;;;;;;12.27;nan;101907.16;10358179;28;20038;-83
2023/10/07 02:39:56;;;;;;;26.60;11.30;;;;;;;12.32;nan;101887.31;10359823;28;20053;-84
2023/10/07 02:45:01;;;;;;;19.67;10.38;;;;;;;12.25;nan;101895.66;10361830;28;20041;-84
2023/10/07 02:50:01;;;;;;;20.25;11.90;;;;;;;12.24;nan;101897.38;10358994;28;20042;-84
2023/10/07 03:00:29;;;;;;;33.47;11.35;;;;;;;12.46;nan;101906.47;10372494;28;20049;-85
2023/10/07 03:05:29;;;;;;;21.05;10.75;;;;;;;12.46;nan;101901.22;10360872;28;20124;-83
2023/10/07 03:10:43;;;;;;;17.05;9.68;;;;;;;12.56;nan;101906.16;10358082;28;20045;-83
2023/10/07 03:15:46;;;;;;;28.42;12.38;;;;;;;12.60;nan;101889.78;10343626;28;20490;-85
2023/10/07 03:20:48;;;;;;;17.35;9.52;;;;;;;12.62;nan;101890.75;10372090;28;20034;-84
2023/10/07 03:30:58;;;;;;;19.95;11.77;;;;;;;12.73;nan;101893.06;10372955;28;20128;-88
2023/10/07 03:36:07;;;;;;;19.58;9.95;;;;;;;12.75;nan;101912.44;10371915;28;20045;-84
2023/10/07 03:41:09;;;;;;;18.63;9.73;;;;;;;12.80;nan;101882.09;10373311;28;20447;-84
2023/10/07 03:46:10;;;;;;;29.23;13.32;;;;;;;12.85;nan;101884.97;10355867;28;20080;-83
2023/10/07 03:51:12;;;;;;;30.90;12.38;;;;;;;12.83;nan;101882.25;10372207;28;20121;-84
2023/10/07 03:56:14;;;;;;;17.70;9.85;;;;;;;12.84;nan;101881.44;10371081;28;20037;-83
2023/10/07 04:01:18;;;;;;;19.20;10.80;;;;;;;12.79;nan;101872.41;10371435;28;20038;-85
2023/10/07 04:06:27;;;;;;;22.65;10.10;;;;;;;12.73;nan;101870.34;10371377;28;20034;-80
2023/10/07 04:11:28;;;;;;;16.73;9.70;;;;;;;12.74;nan;101874.78;10372468;28;20034;-83
2023/10/07 04:16:33;;;;;;;19.40;10.02;;;;;;;12.75;nan;101870.41;10325582;28;20402;-83
2023/10/07 04:21:39;;;;;;;19.30;9.70;;;;;;;12.75;nan;101859.91;10343710;28;20060;-82
2023/10/07 04:26:51;;;;;;;17.30;10.68;;;;;;;12.74;nan;101853.78;10332684;28;20076;-82
2023/10/07 04:31:53;;;;;;;21.10;11.13;;;;;;;12.75;nan;101859.91;10311961;28;22129;-82
2023/10/07 04:42:05;;;;;;;20.38;9.52;;;;;;;12.73;nan;101849.34;10310731;28;20101;-82
2023/10/07 04:52:28;;;;;;;18.50;8.90;;;;;;;12.82;nan;101863.78;10318554;28;20117;-83
2023/10/07 05:02:48;;;;;;;15.77;9.82;;;;;;;12.77;nan;101846.06;10326056;28;20049;-83
2023/10/07 05:07:50;;;;;;;17.80;8.63;;;;;;;12.83;nan;101852.47;10335049;28;20044;-81
2023/10/07 05:12:55;;;;;;;15.18;7.65;;;;;;;12.82;nan;101859.44;10361316;28;20049;-82
2023/10/07 05:17:55;;;;;;;13.93;7.53;;;;;;;12.81;nan;101864.63;10380829;28;20477;-82
2023/10/07 05:22:56;;;;;;;18.77;9.05;;;;;;;12.78;nan;101882.03;10296889;28;20117;-80
2023/10/07 05:27:57;;;;;;;17.93;8.87;;;;;;;12.79;nan;101875.03;10309737;28;20031;-82
2023/10/07 05:33:02;;;;;;;19.55;8.18;;;;;;;12.86;nan;101879.78;10360039;28;20513;-80
2023/10/07 05:38:09;;;;;;;20.75;8.20;;;;;;;12.83;nan;101881.38;10347129;28;20049;-81
2023/10/07 05:43:11;;;;;;;15.88;8.25;;;;;;;12.85;nan;101872.72;10346570;28;20042;-80
2023/10/07 05:48:12;;;;;;;11.23;7.40;;;;;;;12.85;nan;101872.72;10346387;28;20042;-80
2023/10/07 05:53:12;;;;;;;16.38;7.82;;;;;;;12.93;nan;101870.53;10360942;28;20077;-80
2023/10/07 05:58:13;;;;;;;14.73;7.88;;;;;;;12.90;nan;101866.00;10344259;28;20486;-80
2023/10/07 06:03:13;;;;;;;31.15;9.57;;;;;;;12.86;nan;101864.03;10362395;28;20041;-80
2023/10/07 06:08:15;;;;;;;15.23;8.02;;;;;;;12.90;nan;101870.38;10360008;28;20065;-80
2023/10/07 06:13:15;;;;;;;13.67;7.80;;;;;;;12.97;nan;101876.84;10339540;28;20054;-81
2023/10/07 06:18:18;;;;;;;22.98;9.07;;;;;;;13.04;nan;101882.53;10360449;28;20219;-80
2023/10/07 06:23:19;;;;;;;21.40;8.77;;;;;;;13.16;nan;101882.25;10360682;28;20095;-80
2023/10/07 06:28:29;;;;;;;18.70;7.90;;;;;;;13.31;nan;101873.38;10361349;28;20045;-81
2023/10/07 06:33:31;;;;;;;18.77;8.57;;;;;;;13.51;nan;101872.72;10344729;28;20030;-81
2023/10/07 06:38:33;;;;;;;17.75;7.07;;;;;;;13.71;nan;101883.38;10359610;28;20105;-81
2023/10/07 06:43:34;;;;;;;13.10;8.07;;;;;;;13.83;nan;101880.47;10377242;28;20482;-81
2023/10/07 06:48:34;;;;;;;20.08;7.30;;;;;;;13.91;nan;101878.22;10359436;28;20038;-81
2023/10/07 06:53:38;;;;;;;13.57;6.03;;;;;;;13.99;nan;101873.34;10359679;28;20124;-81
2023/10/07 06:58:39;;;;;;;12.38;7.80;;;;;;;13.94;nan;101887.19;10359810;28;20037;-81
2023/10/07 07:03:41;;;;;;;15.00;7.53;;;;;;;13.99;nan;101887.41;10342722;28;20449;-81
2023/10/07 07:08:43;;;;;;;17.05;7.90;;;;;;;13.90;nan;101897.47;10359500;28;20525;-80
2023/10/07 07:13:44;;;;;;;11.70;6.38;;;;;;;13.92;nan;101904.63;10359413;28;20034;-80
2023/10/07 07:18:44;;;;;;;20.35;7.40;;;;;;;13.89;nan;101917.63;10358527;28;20058;-80
2023/10/07 07:23:49;;;;;;;11.05;6.82;;;;;;;13.78;nan;101913.53;10358684;28;20155;-80
2023/10/07 07:28:54;;;;;;;14.18;6.18;;;;;;;13.73;nan;101925.56;10343221;28;20022;-79
2023/10/07 07:34:06;;;;;;;12.30;6.47;;;;;;;13.79;nan;101913.59;10359873;28;20125;-80
2023/10/07 07:39:09;;;;;;;18.23;7.35;;;;;;;13.93;nan;101918.66;10358663;28;20066;-80
2023/10/07 07:44:11;;;;;;;14.80;7.32;;;;;;;14.18;nan;101918.19;10319203;28;20042;-80
2023/10/07 07:49:12;;;;;;;11.85;6.43;;;;;;;14.52;nan;101914.56;10342183;28;20038;-81
2023/10/07 07:54:14;;;;;;;12.98;6.80;;;;;;;14.80;nan;101909.72;10358909;28;20038;-81
2023/10/07 07:59:15;;;;;;;;;;;;;;;15.14;nan;101913.03;10342179;28;20046;-81
2023/10/07 08:04:19;;;;;;;17.60;6.38;;;;;;;15.31;nan;101911.16;10361524;28;20336;-81
2023/10/07 08:09:19;;;;;;;12.88;5.35;;;;;;;15.30;nan;101912.91;10366250;28;20128;-81
2023/10/07 08:14:22;;;;;;;10.98;5.65;;;;;;;15.43;nan;101914.34;10365562;28;20032;-81
2023/10/07 08:19:23;;;;;;;12.25;6.05;;;;;;;15.74;nan;101915.69;10364728;28;20045;-81
2023/10/07 08:24:31;;;;;;;19.98;7.10;;;;;;;15.62;nan;101913.44;10366530;28;20528;-81
2023/10/07 08:29:34;;;;;;;9.70;5.80;;;;;;;15.84;nan;101915.22;10365798;28;20125;-81
2023/10/07 08:34:35;;;;;;;8.95;5.75;;;;;;;15.74;nan;101914.78;10364577;28;20030;-81
2023/10/07 08:39:44;;;;;;;14.73;6.30;;;;;;;16.08;nan;101921.53;10364511;28;20457;-81
2023/10/07 08:44:51;;;;;;;11.75;5.55;;;;;;;16.10;nan;101918.09;10364879;28;20545;-81
2023/10/07 08:49:52;;;;;;;14.32;6.13;;;;;;;16.21;nan;101922.94;10365099;28;20074;-81
2023/10/07 08:54:53;;;;;;;16.60;6.40;;;;;;;16.42;nan;101915.00;10363559;28;20038;-80
2023/10/07 08:59:54;;;;;;;11.00;6.63;;;;;;;16.85;nan;101903.47;10347332;28;20462;-81
2023/10/07 09:04:55;;;;;;;20.10;6.32;;;;;;;17.09;nan;101901.72;10348185;28;20113;-81
2023/10/07 09:10:01;;;;;;;13.07;5.97;;;;;;;17.20;nan;101907.41;10363681;28;20405;-80
2023/10/07 09:15:12;;;;;;;17.60;7.20;;;;;;;17.50;nan;101890.84;10361776;28;20289;-79
2023/10/07 09:20:29;;;;;;;16.52;5.10;;;;;;;17.38;nan;101888.66;10362762;28;20061;-80
2023/10/07 09:25:33;;;;;;;11.27;6.07;;;;;;;17.63;nan;101887.78;10363929;28;20184;-78
2023/10/07 09:35:49;;;;;;;9.32;4.43;;;;;;;18.27;nan;101893.47;10347268;28;20050;-79
2023/10/07 09:41:11;;;;;;;10.57;5.15;;;;;;;18.53;nan;101895.16;10363002;28;20422;-77
2023/10/07 09:46:14;;;;;;;7.32;4.07;;;;;;;19.86;nan;101893.63;10349675;28;20034;-77
2023/10/07 09:51:17;;;;;;;10.57;4.90;;;;;;;22.32;nan;101909.34;10345452;28;20113;-80
2023/10/07 09:57:19;;;;;;;9.20;4.55;;;;;;;23.28;nan;101927.63;10345541;28;20389;-78
2023/10/07 10:02:25;;;;;;;10.18;4.90;;;;;;;24.01;nan;101957.78;10337678;28;20180;-81
2023/10/07 10:07:44;;;;;;;9.38;5.25;;;;;;;24.01;nan;101968.47;10364440;28;20048;-81
2023/10/07 10:18:37;;;;;;;9.93;4.55;;;;;;;24.47;nan;101969.72;10316683;28;20478;-78
2023/10/07 10:23:39;;;;;;;8.43;4.50;;;;;;;24.71;nan;101976.13;10361572;28;20868;-78
2023/10/07 10:28:41;;;;;;;6.22;3.53;;;;;;;25.34;nan;101968.44;10360073;28;20125;-78
2023/10/07 10:33:42;;;;;;;;;;;;;;;25.75;nan;101969.47;10360804;28;20022;-79
2023/10/07 10:38:45;;;;;;;7.75;3.70;;;;;;;26.99;nan;101978.38;10361593;28;20317;-78
2023/10/07 10:43:45;;;;;;;10.02;4.35;;;;;;;26.16;nan;101997.28;10361773;28;20182;-79
2023/10/07 10:48:47;;;;;;;8.20;4.30;;;;;;;25.98;nan;101983.81;10361228;28;20034;-80
2023/10/07 10:53:47;;;;;;;8.15;4.65;;;;;;;25.75;nan;101985.56;10358894;28;20042;-80
2023/10/07 10:58:53;;;;;;;6.73;3.97;;;;;;;26.05;nan;101983.81;10342976;28;20940;-79
2023/10/07 11:03:54;;;;;;;9.88;4.18;;;;;;;26.36;nan;101983.84;10361717;28;20552;-79
2023/10/07 11:08:56;;;;;;;12.98;4.82;;;;;;;26.39;nan;101989.22;10359171;28;20180;-79
2023/10/07 11:13:57;;;;;;;9.18;3.67;;;;;;;26.73;nan;101982.91;10342497;28;20091;-79
2023/10/07 11:18:57;;;;;;;9.70;4.03;;;;;;;26.45;nan;101979.38;10360863;28;20803;-79
2023/10/07 11:24:00;;;;;;;6.80;3.80;;;;;;;24.97;nan;101970.06;10342206;28;20113;-78
2023/10/07 11:29:15;;;;;;;11.95;5.30;;;;;;;24.31;nan;101961.59;10359801;28;20045;-78
2023/10/07 11:34:16;;;;;;;9.70;4.40;;;;;;;25.13;nan;101958.53;10358824;28;20060;-79
2023/10/07 11:39:16;;;;;;;6.83;3.80;;;;;;;25.24;nan;101947.88;10346396;28;20034;-79
2023/10/07 11:44:19;;;;;;;8.60;3.30;;;;;;;26.45;nan;101960.56;10365955;28;20044;-80
2023/10/07 11:49:21;;;;;;;8.93;3.40;;;;;;;26.72;nan;101956.97;10367768;28;20045;-80
2023/10/07 11:54:24;;;;;;;9.07;4.25;;;;;;;27.02;nan;101951.50;10367977;28;20034;-79
2023/10/07 11:59:24;;;;;;;10.82;4.20;;;;;;;26.63;nan;101955.19;10366260;28;20030;-80
2023/10/07 12:04:26;;;;;;;9.47;4.50;;;;;;;26.56;nan;101955.22;10349752;28;20066;-79
2023/10/07 12:09:27;;;;;;;8.63;3.95;;;;;;;27.27;nan;101941.56;10368010;28;20065;-78
2023/10/07 12:14:33;;;;;;;10.65;3.55;;;;;;;27.51;nan;101940.53;10367298;28;20040;-78
2023/10/07 12:19:34;;;;;;;6.82;3.38;;;;;;;27.50;nan;101937.88;10365269;28;20041;-79
2023/10/07 12:24:34;;;;;;;;;;;;;;;26.95;nan;101950.66;10365732;28;20061;-78
2023/10/07 12:29:35;;;;;;;6.97;3.38;;;;;;;27.18;nan;101949.66;10381614;28;19996;-78
2023/10/07 12:34:35;;;;;;;7.73;3.40;;;;;;;26.49;nan;101946.25;10366266;28;20095;-79
2023/10/07 12:39:39;;;;;;;11.57;3.77;;;;;;;26.40;nan;101952.56;10366036;28;20030;-77
2023/10/07 12:44:40;;;;;;;9.93;4.03;;;;;;;26.44;nan;101965.06;10363545;28;20459;-79
2023/10/07 12:49:45;;;;;;;8.10;3.63;;;;;;;27.22;nan;101963.06;10364125;28;20112;-79
2023/10/07 12:54:46;;;;;;;8.88;3.78;;;;;;;27.77;nan;101960.13;10332283;28;20045;-80
2023/10/07 12:59:52;;;;;;;8.85;4.10;;;;;;;26.63;nan;101973.97;10363743;28;20085;-79
2023/10/07 13:04:55;;;;;;;7.93;4.72;;;;;;;26.32;nan;101982.06;10365887;28;20045;-80
2023/10/07 13:09:56;;;;;;;7.07;4.03;;;;;;;26.50;nan;101972.19;10363754;28;20044;-81
2023/10/07 13:14:59;;;;;;;8.48;3.22;;;;;;;26.39;nan;101966.88;10364588;28;20125;-80
2023/10/07 13:19:59;;;;;;;7.88;4.65;;;;;;;27.10;nan;101958.66;10362302;28;20045;-80
2023/10/07 13:25:00;;;;;;;8.10;3.57;;;;;;;26.89;nan;101964.09;10347111;28;20481;-80
2023/10/07 13:30:04;;;;;;;11.10;4.70;;;;;;;25.27;nan;101966.66;10346093;28;20172;-81
2023/10/07 13:35:08;;;;;;;7.60;4.07;;;;;;;25.00;nan;101964.72;10346366;28;20037;-80
2023/10/07 13:40:15;;;;;;;12.35;4.55;;;;;;;25.83;nan;101972.19;10364448;28;20026;-80
2023/10/07 13:45:17;;;;;;;7.82;3.72;;;;;;;26.10;nan;101965.94;10364098;28;20050;-81
2023/10/07 13:50:24;;;;;;;9.68;4.13;;;;;;;26.44;nan;101945.38;10345342;28;20037;-80
2023/10/07 13:55:55;;;;;;;8.95;4.03;;;;;;;25.58;nan;101939.97;10361522;28;20034;-81
2023/10/07 14:00:57;;;;;;;13.63;5.93;;;;;;;24.75;nan;101927.13;10350072;28;20038;-79
2023/10/07 14:06:03;;;;;;;10.27;4.50;;;;;;;24.80;nan;101911.09;10362308;28;20042;-79
2023/10/07 14:11:06;;;;;;;5.97;3.75;;;;;;;25.46;nan;101914.03;10346722;28;20042;-80
2023/10/07 14:16:08;;;;;;;9.02;4.13;;;;;;;25.62;nan;101914.06;10360666;28;20044;-79
2023/10/07 14:21:08;;;;;;;11.05;4.72;;;;;;;25.84;nan;101897.97;10361996;28;20421;-80
2023/10/07 14:26:12;;;;;;;15.27;4.57;;;;;;;25.98;nan;101904.25;10359590;28;20030;-80
2023/10/07 14:31:16;;;;;;;10.27;3.45;;;;;;;25.44;nan;101901.50;10361940;28;20042;-82
2023/10/07 14:36:21;;;;;;;10.60;4.30;;;;;;;23.08;nan;101897.09;10344807;28;20117;-82
2023/10/07 14:41:21;;;;;;;11.27;4.65;;;;;;;22.49;nan;101914.97;10343847;28;20030;-81
2023/10/07 14:46:22;;;;;;;10.07;4.60;;;;;;;21.50;nan;101906.13;10343196;28;20117;-81
2023/10/07 14:51:23;;;;;;;8.93;4.13;;;;;;;22.02;nan;101908.88;10343320;28;20048;-82
2023/10/07 14:56:24;;;;;;;7.77;4.17;;;;;;;23.00;nan;101886.28;10360328;28;20033;-80
2023/10/07 15:01:25;;;;;;;9.55;4.75;;;;;;;22.98;nan;101918.31;10360551;28;20045;-82
2023/10/07 15:06:25;;;;;;;12.27;6.07;;;;;;;22.78;nan;101901.16;10358978;28;20038;-82
2023/10/07 15:11:26;;;;;;;8.53;4.53;;;;;;;22.46;nan;101893.59;10319774;28;20130;-81
2023/10/07 15:16:26;;;;;;;8.13;4.40;;;;;;;21.63;nan;101902.00;10324797;28;20458;-79
2023/10/07 15:21:27;;;;;;;7.70;4.57;;;;;;;21.06;nan;101891.09;10354744;28;20057;-78
2023/10/07 15:26:29;;;;;;;8.70;4.83;;;;;;;20.68;nan;101876.06;10357097;28;20096;-79
2023/10/07 15:31:29;;;;;;;;;;;;;;;20.54;nan;101894.41;10337244;28;20040;-80
2023/10/07 15:36:30;;;;;;;12.65;4.78;;;;;;;20.60;nan;101917.56;10369453;28;19928;-80
2023/10/07 15:41:30;;;;;;;9.27;4.63;;;;;;;20.46;nan;101915.47;10344567;28;20030;-86
2023/10/07 15:46:31;;;;;;;13.73;5.37;;;;;;;20.09;nan;101907.53;10356997;28;20088;-83
2023/10/07 15:51:32;;;;;;;9.23;4.33;;;;;;;19.80;nan;101886.41;10357519;28;20041;-83
2023/10/07 15:56:39;;;;;;;10.27;4.53;;;;;;;19.56;nan;101881.34;10356793;28;20129;-82
2023/10/07 16:01:43;;;;;;;12.70;5.13;;;;;;;19.32;nan;101887.78;10356283;28;20044;-83
2023/10/07 16:06:43;;;;;;;8.90;4.15;;;;;;;19.19;nan;101859.09;10373824;28;20389;-82
2023/10/07 16:11:47;;;;;;;12.02;4.80;;;;;;;19.02;nan;101842.72;10357659;28;20129;-83
2023/10/07 16:16:50;;;;;;;18.52;6.43;;;;;;;18.84;nan;101849.25;10355187;28;20038;-81
2023/10/07 16:21:50;;;;;;;12.85;5.70;;;;;;;18.55;nan;101840.44;10357615;28;20084;-81
2023/10/07 16:26:51;;;;;;;13.75;6.07;;;;;;;18.46;nan;101838.41;10361585;28;20072;-82
2023/10/07 16:31:53;;;;;;;9.95;5.03;;;;;;;18.26;nan;101848.38;10363360;28;20169;-82
2023/10/07 16:36:53;;;;;;;9.43;4.50;;;;;;;18.21;nan;101853.53;10362964;28;20124;-82
2023/10/07 16:41:54;;;;;;;10.35;4.75;;;;;;;18.06;nan;101853.94;10364312;28;20041;-82
2023/10/07 16:46:55;;;;;;;8.90;3.70;;;;;;;17.88;nan;101851.56;10345484;28;20125;-83
2023/10/07 16:51:55;;;;;;;9.32;5.40;;;;;;;17.67;nan;101857.94;10362161;28;20125;-82
2023/10/07 16:56:57;;;;;;;13.32;5.95;;;;;;;17.74;nan;101859.03;10365206;28;20128;-82
2023/10/07 17:02:00;;;;;;;10.70;5.55;;;;;;;17.60;nan;101866.50;10362867;28;20046;-82
2023/10/07 17:07:01;;;;;;;14.32;5.30;;;;;;;17.37;nan;101845.44;10361229;28;20128;-82
2023/10/07 17:12:01;;;;;;;10.05;4.93;;;;;;;17.22;nan;101855.47;10361209;28;20044;-83
2023/10/07 17:17:03;;;;;;;20.52;5.65;;;;;;;17.05;nan;101850.47;10361047;28;20274;-84
2023/10/07 17:22:04;;;;;;;13.30;6.00;;;;;;;16.97;nan;101844.00;10383058;28;20057;-83
2023/10/07 17:27:04;;;;;;;7.43;4.60;;;;;;;16.84;nan;101847.88;10360454;28;20041;-83
2023/10/07 17:32:05;;;;;;;12.07;4.90;;;;;;;16.76;nan;101860.81;10362662;28;20066;-83
2023/10/07 17:37:06;;;;;;;12.25;5.45;;;;;;;16.64;nan;101887.66;10360616;28;24635;-82
2023/10/07 17:42:08;;;;;;;9.45;4.75;;;;;;;16.56;nan;101895.31;10361403;28;20704;-82
2023/10/07 17:47:08;;;;;;;15.03;6.20;;;;;;;16.38;nan;101881.38;10360200;28;20505;-82
2023/10/07 17:52:09;;;;;;;11.43;5.20;;;;;;;16.07;nan;101870.44;10377033;28;20318;-83
2023/10/07 17:57:10;;;;;;;10.35;4.68;;;;;;;15.98;nan;101860.44;10374664;28;20548;-83
2023/10/07 18:02:10;;;;;;;12.55;5.03;;;;;;;15.93;nan;101858.41;10359594;28;20032;-82
2023/10/07 18:07:11;;;;;;;9.90;4.70;;;;;;;15.88;nan;101850.31;10376099;28;20045;-82
2023/10/07 18:12:11;;;;;;;10.65;6.05;;;;;;;15.91;nan;101854.81;10343219;28;20073;-82
2023/10/07 18:17:12;;;;;;;14.65;5.22;;;;;;;15.96;nan;101864.75;10358434;28;20486;-83
2023/10/07 18:22:13;;;;;;;10.73;5.28;;;;;;;16.14;nan;101859.31;10358282;28;20042;-83
2023/10/07 18:27:14;;;;;;;11.32;5.35;;;;;;;16.33;nan;101859.16;10358993;28;20429;-82
2023/10/07 18:32:14;;;;;;;9.00;5.07;;;;;;;16.33;nan;101844.19;10358883;28;20076;-83
2023/10/07 18:37:15;;;;;;;10.80;5.88;;;;;;;16.26;nan;101842.16;10359695;28;20478;-83
2023/10/07 18:42:15;;;;;;;8.30;5.35;;;;;;;16.12;nan;101836.31;10359285;28;20080;-83
2023/10/07 18:47:16;;;;;;;11.57;6.45;;;;;;;15.99;nan;101845.47;10349439;28;20057;-83
2023/10/07 18:52:17;;;;;;;12.38;6.90;;;;;;;16.00;nan;101856.13;10356086;28;20521;-83
2023/10/07 18:57:17;;;;;;;6.60;4.68;;;;;;;15.85;nan;101868.66;10345839;28;20073;-83
2023/10/07 19:02:21;;;;;;;10.18;5.00;;;;;;;15.92;nan;101868.09;10390667;28;20081;-83
2023/10/07 19:07:21;;;;;;;14.23;5.35;;;;;;;15.99;nan;101850.75;10357327;28;20034;-82
2023/10/07 19:12:22;;;;;;;15.52;4.72;;;;;;;16.02;nan;101853.53;10355510;28;20042;-83
2023/10/07 19:17:23;;;;;;;10.68;5.00;;;;;;;16.10;nan;101853.84;10357843;28;20033;-83
2023/10/07 19:22:23;;;;;;;11.25;4.95;;;;;;;16.03;nan;101859.72;10364384;28;20071;-82
2023/10/07 19:27:25;;;;;;;10.73;5.18;;;;;;;15.88;nan;101862.59;10370776;28;20030;-84
2023/10/07 19:32:25;;;;;;;6.90;4.18;;;;;;;15.97;nan;101863.00;10373000;28;20046;-83
2023/10/07 19:37:26;;;;;;;12.93;5.97;;;;;;;16.02;nan;101861.44;10373221;28;20488;-82
2023/10/07 19:42:26;;;;;;;8.50;4.35;;;;;;;16.12;nan;101849.53;10358888;28;20034;-81
2023/10/07 19:47:27;;;;;;;10.63;4.82;;;;;;;16.03;nan;101865.88;10371660;28;20072;-83
2023/10/07 19:52:27;;;;;;;11.30;4.60;;;;;;;15.89;nan;101861.78;10359205;28;20073;-83
2023/10/07 19:57:28;;;;;;;12.38;5.10;;;;;;;15.75;nan;101864.69;10320833;28;20548;-83
2023/10/07 20:02:28;;;;;;;10.52;5.80;;;;;;;15.82;nan;101869.41;10317893;28;20038;-83
2023/10/07 20:07:29;;;;;;;10.10;4.60;;;;;;;15.73;nan;101878.69;10325881;28;20073;-83
2023/10/07 20:12:29;;;;;;;11.98;5.40;;;;;;;15.69;nan;101882.91;10324964;28;20484;-84
2023/10/07 20:17:30;;;;;;;8.30;4.25;;;;;;;15.63;nan;101893.19;10323034;28;20046;-85
2023/10/07 20:22:31;;;;;;;8.77;4.93;;;;;;;15.54;nan;101897.25;10322008;28;20092;-85
2023/10/07 20:27:32;;;;;;;15.70;5.53;;;;;;;15.53;nan;101913.03;10339485;28;20050;-86
2023/10/07 20:32:33;;;;;;;10.77;4.65;;;;;;;15.50;nan;101926.06;10323205;28;20039;-87
2023/10/07 20:37:34;;;;;;;10.10;5.03;;;;;;;15.44;nan;101958.34;10344178;28;20452;-85
2023/10/07 20:42:34;;;;;;;9.68;4.88;;;;;;;15.34;nan;101966.69;10347635;28;20099;-85
2023/10/07 20:47:35;;;;;;;11.95;6.60;;;;;;;15.21;nan;101975.78;10355456;28;20123;-86
2023/10/07 20:52:35;;;;;;;8.65;5.07;;;;;;;15.13;nan;101972.75;10360894;28;20065;-86
2023/10/07 20:57:36;;;;;;;13.00;6.13;;;;;;;15.04;nan;101980.25;10361388;28;20043;-85
2023/10/07 21:02:37;;;;;;;10.82;5.07;;;;;;;14.85;nan;101982.00;10342831;28;20041;-85
2023/10/07 21:07:37;;;;;;;11.43;5.20;;;;;;;14.81;nan;101967.78;10362442;28;20446;-85
2023/10/07 21:12:38;;;;;;;7.30;4.82;;;;;;;14.85;nan;101967.94;10360916;28;20057;-86
2023/10/07 21:17:38;;;;;;;11.85;5.18;;;;;;;14.90;nan;101964.69;10360845;28;20113;-85
2023/10/07 21:22:39;;;;;;;18.85;6.05;;;;;;;15.02;nan;101960.81;10326809;28;20057;-85
2023/10/07 21:27:39;;;;;;;8.82;5.00;;;;;;;15.03;nan;101945.09;10321575;28;20085;-85
2023/10/07 21:32:40;;;;;;;9.60;6.55;;;;;;;15.12;nan;101958.69;10351045;28;20040;-85
2023/10/07 21:37:40;;;;;;;9.43;5.25;;;;;;;15.19;nan;101938.78;10363090;28;20045;-85
2023/10/07 21:42:41;;;;;;;15.70;6.45;;;;;;;15.20;nan;101940.56;10360761;28;20030;-86
2023/10/07 21:47:42;;;;;;;12.07;5.65;;;;;;;15.23;nan;101946.00;10360005;28;20434;-85
2023/10/07 21:52:43;;;;;;;14.30;5.73;;;;;;;15.23;nan;101940.72;10359711;28;20041;-86
2023/10/07 21:57:44;;;;;;;12.20;5.38;;;;;;;15.24;nan;101944.28;10361629;28;20073;-86
2023/10/07 22:02:45;;;;;;;11.55;6.07;;;;;;;15.29;nan;101960.28;10361064;28;20509;-85
2023/10/07 22:07:47;;;;;;;11.38;6.22;;;;;;;15.35;nan;101955.28;10359925;28;20041;-85
2023/10/07 22:12:50;;;;;;;9.65;5.28;;;;;;;15.44;nan;101944.28;10360829;28;20054;-85
2023/10/07 22:17:50;;;;;;;5.70;4.07;;;;;;;15.51;nan;101955.16;10358331;28;20034;-86
2023/10/07 22:22:51;;;;;;;10.75;5.50;;;;;;;15.57;nan;101947.50;10359435;28;20088;-85
2023/10/07 22:27:51;;;;;;;12.85;4.65;;;;;;;15.57;nan;101942.22;10359752;28;20048;-85
2023/10/07 22:32:58;;;;;;;12.73;5.32;;;;;;;15.54;nan;101938.56;10359865;28;20072;-86
2023/10/07 22:37:59;;;;;;;12.43;5.85;;;;;;;15.51;nan;101941.06;10337573;28;20468;-85
2023/10/07 22:43:02;;;;;;;9.18;4.50;;;;;;;15.53;nan;101963.16;10369644;28;20502;-85
2023/10/07 22:48:06;;;;;;;9.23;5.15;;;;;;;15.56;nan;101937.78;10357818;28;20041;-85
2023/10/07 22:53:12;;;;;;;9.45;4.85;;;;;;;15.64;nan;101932.88;10341597;28;20034;-86
2023/10/07 22:58:14;;;;;;;9.82;4.82;;;;;;;15.60;nan;101930.94;10357496;28;20117;-85
2023/10/07 23:03:34;;;;;;;9.40;4.43;;;;;;;15.49;nan;101943.63;10354359;28;20405;-86
2023/10/07 23:08:37;;;;;;;8.55;4.32;;;;;;;15.46;nan;101945.25;10357868;28;20050;-86
2023/10/07 23:13:38;;;;;;;13.15;5.05;;;;;;;15.46;nan;101938.22;10358273;28;20052;-85
2023/10/07 23:18:40;;;;;;;32.67;8.70;;;;;;;15.39;nan;101950.25;10357735;28;20060;-85
2023/10/07 23:23:43;;;;;;;10.95;5.53;;;;;;;15.36;nan;101951.81;10358543;28;20049;-85
2023/10/07 23:28:45;;;;;;;18.42;5.20;;;;;;;15.28;nan;101962.03;10357244;28;20077;-86
2023/10/07 23:33:47;;;;;;;9.52;5.35;;;;;;;15.13;nan;101972.75;10359552;28;20037;-86
2023/10/07 23:38:48;;;;;;;9.88;5.32;;;;;;;14.93;nan;101975.38;10366238;28;20053;-85
2023/10/07 23:43:48;;;;;;;10.65;5.28;;;;;;;14.72;nan;101985.78;10381824;28;20040;-85
2023/10/07 23:48:49;;;;;;;19.02;9.60;;;;;;;14.57;nan;101985.00;10365224;28;20048;-85
2023/10/07 23:53:50;;;;;;;15.40;6.75;;;;;;;14.36;nan;101991.03;10362315;28;20120;-85
2023/10/07 23:58:52;;;;;;;8.82;5.07;;;;;;;14.24;nan;101996.56;10365074;28;20041;-84
